createdAt,value
2018-07-22T00:00:39.973Z,28.76
2018-07-22T00:01:40.319Z,28.72
2018-07-22T00:02:40.039Z,28.67
2018-07-22T00:03:40.284Z,28.67
2018-07-22T00:04:40.160Z,28.64
2018-07-22T00:05:40.146Z,28.64
2018-07-22T00:06:40.226Z,28.62
2018-07-22T00:07:40.520Z,28.62
2018-07-22T00:08:40.263Z,28.65
2018-07-22T00:09:40.292Z,28.62
2018-07-22T00:11:40.351Z,28.69
2018-07-22T00:12:40.409Z,28.69
2018-07-22T00:13:40.736Z,28.62
2018-07-22T00:14:40.463Z,28.62
2018-07-22T00:15:40.491Z,28.58
2018-07-22T00:16:40.524Z,28.57
2018-07-22T00:17:40.565Z,28.54
2018-07-22T00:18:40.607Z,28.54
2018-07-22T00:19:40.883Z,28.54
2018-07-22T00:20:40.662Z,28.45
2018-07-22T00:21:40.706Z,28.42
2018-07-22T00:22:40.735Z,28.43
2018-07-22T00:23:40.773Z,28.33
2018-07-22T00:24:40.802Z,28.36
2018-07-22T00:25:41.089Z,28.23
2018-07-22T00:26:40.889Z,28.28
2018-07-22T00:27:40.907Z,28.24
2018-07-22T00:28:40.949Z,28.28
2018-07-22T00:29:40.975Z,28.17
2018-07-22T00:30:41.020Z,28.09
2018-07-22T00:31:41.351Z,28.09
2018-07-22T00:32:41.078Z,28.08
2018-07-22T00:33:41.127Z,28.03
2018-07-22T00:34:41.157Z,28.05
2018-07-22T00:35:41.190Z,28.02
2018-07-22T00:36:41.215Z,28.02
2018-07-22T00:37:41.510Z,28.01
2018-07-22T00:38:41.291Z,28.05
2018-07-22T00:39:41.323Z,28.03
2018-07-22T00:40:41.360Z,27.93
2018-07-22T00:41:41.418Z,27.91
2018-07-22T00:42:41.428Z,27.88
2018-07-22T00:43:41.709Z,27.98
2018-07-22T00:44:41.489Z,27.88
2018-07-22T00:45:41.528Z,27.91
2018-07-22T00:46:41.562Z,27.95
2018-07-22T00:47:41.593Z,27.87
2018-07-22T00:48:41.626Z,27.88
2018-07-22T00:49:41.965Z,27.87
2018-07-22T00:50:41.698Z,27.87
2018-07-22T00:51:41.736Z,27.86
2018-07-22T00:52:41.774Z,27.83
2018-07-22T00:53:41.805Z,27.88
2018-07-22T00:54:41.838Z,27.90
2018-07-22T00:55:42.343Z,27.78
2018-07-22T00:56:41.917Z,27.80
2018-07-22T00:57:41.947Z,27.76
2018-07-22T00:58:41.970Z,27.80
2018-07-22T00:59:42.014Z,27.71
2018-07-22T01:00:42.041Z,27.69
2018-07-22T01:01:42.076Z,27.71
2018-07-22T01:02:42.362Z,27.68
2018-07-22T01:03:42.149Z,27.69
2018-07-22T01:04:42.182Z,27.68
2018-07-22T01:05:42.214Z,27.68
2018-07-22T01:06:42.256Z,27.69
2018-07-22T01:07:42.293Z,27.68
2018-07-22T01:08:42.311Z,27.71
2018-07-22T01:09:42.607Z,27.68
2018-07-22T01:10:42.379Z,27.63
2018-07-22T01:11:42.437Z,27.66
2018-07-22T01:12:42.461Z,27.62
2018-07-22T01:13:42.501Z,27.65
2018-07-22T01:14:42.524Z,27.65
2018-07-22T01:15:42.551Z,27.66
2018-07-22T01:16:42.940Z,27.65
2018-07-22T01:17:42.624Z,27.58
2018-07-22T01:18:42.655Z,27.49
2018-07-22T01:19:42.694Z,27.53
2018-07-22T01:20:42.724Z,27.59
2018-07-22T01:21:42.754Z,27.46
2018-07-22T01:22:42.798Z,27.58
2018-07-22T01:23:43.084Z,27.48
2018-07-22T01:24:42.863Z,27.50
2018-07-22T01:25:42.891Z,27.49
2018-07-22T01:26:43.232Z,27.48
2018-07-22T01:27:43.141Z,27.46
2018-07-22T01:28:43.000Z,27.40
2018-07-22T01:29:43.027Z,27.42
2018-07-22T01:30:43.318Z,27.39
2018-07-22T01:31:43.099Z,27.42
2018-07-22T01:32:43.128Z,27.42
2018-07-22T01:33:43.165Z,27.42
2018-07-22T01:34:43.198Z,27.40
2018-07-22T01:35:43.239Z,27.25
2018-07-22T01:36:43.274Z,27.31
2018-07-22T01:37:43.603Z,27.30
2018-07-22T01:38:43.350Z,27.23
2018-07-22T01:39:43.371Z,27.18
2018-07-22T01:40:43.396Z,27.15
2018-07-22T01:41:43.444Z,27.15
2018-07-22T01:42:43.478Z,27.23
2018-07-22T01:43:43.509Z,27.16
2018-07-22T01:44:43.783Z,27.16
2018-07-22T01:45:43.575Z,27.02
2018-07-22T01:46:43.605Z,27.06
2018-07-22T01:47:43.638Z,27.09
2018-07-22T01:48:43.683Z,26.96
2018-07-22T01:49:43.704Z,27.02
2018-07-22T01:50:43.738Z,27.03
2018-07-22T01:51:44.073Z,26.97
2018-07-22T01:52:43.805Z,26.90
2018-07-22T01:53:44.089Z,26.97
2018-07-22T01:54:43.877Z,27.02
2018-07-22T01:55:43.907Z,27.05
2018-07-22T01:56:43.961Z,27.01
2018-07-22T01:57:44.153Z,27.02
2018-07-22T01:58:44.314Z,26.97
2018-07-22T01:59:44.042Z,26.93
2018-07-22T02:00:44.131Z,26.91
2018-07-22T02:01:44.178Z,26.88
2018-07-22T02:02:44.152Z,26.91
2018-07-22T02:03:44.178Z,26.94
2018-07-22T02:04:44.220Z,26.88
2018-07-22T02:05:44.499Z,26.88
2018-07-22T02:06:44.280Z,26.91
2018-07-22T02:07:44.311Z,26.87
2018-07-22T02:08:44.345Z,26.93
2018-07-22T02:09:44.383Z,26.93
2018-07-22T02:10:44.425Z,26.90
2018-07-22T02:11:44.449Z,26.91
2018-07-22T02:12:44.745Z,26.94
2018-07-22T02:13:44.520Z,26.91
2018-07-22T02:14:44.553Z,26.90
2018-07-22T02:15:44.594Z,26.93
2018-07-22T02:16:44.620Z,26.96
2018-07-22T02:17:44.655Z,26.90
2018-07-22T02:18:44.690Z,26.93
2018-07-22T02:19:45.025Z,26.86
2018-07-22T02:20:44.760Z,26.91
2018-07-22T02:21:44.802Z,26.84
2018-07-22T02:22:44.820Z,26.88
2018-07-22T02:23:44.852Z,26.87
2018-07-22T02:24:44.884Z,26.90
2018-07-22T02:25:45.170Z,26.90
2018-07-22T02:26:44.956Z,26.84
2018-07-22T02:27:44.989Z,26.88
2018-07-22T02:28:45.121Z,26.87
2018-07-22T02:29:45.049Z,26.84
2018-07-22T02:30:45.085Z,26.86
2018-07-22T02:31:45.375Z,26.86
2018-07-22T02:32:45.152Z,26.87
2018-07-22T02:33:45.193Z,26.84
2018-07-22T02:34:45.221Z,26.90
2018-07-22T02:35:45.256Z,26.90
2018-07-22T02:36:45.290Z,26.81
2018-07-22T02:37:45.572Z,26.88
2018-07-22T02:38:45.350Z,26.84
2018-07-22T02:39:45.390Z,26.84
2018-07-22T02:40:45.420Z,26.79
2018-07-22T02:41:45.469Z,26.73
2018-07-22T02:42:45.496Z,26.76
2018-07-22T02:43:45.827Z,26.75
2018-07-22T02:44:45.555Z,26.76
2018-07-22T02:45:45.591Z,26.69
2018-07-22T02:46:45.642Z,26.75
2018-07-22T02:47:45.661Z,26.71
2018-07-22T02:48:45.786Z,26.69
2018-07-22T02:49:46.022Z,26.72
2018-07-22T02:50:45.770Z,26.66
2018-07-22T02:51:45.785Z,26.61
2018-07-22T02:52:45.834Z,26.60
2018-07-22T02:53:45.856Z,26.60
2018-07-22T02:54:45.886Z,26.54
2018-07-22T02:55:46.174Z,26.59
2018-07-22T02:56:46.144Z,26.53
2018-07-22T02:57:45.987Z,26.44
2018-07-22T02:58:46.156Z,26.59
2018-07-22T02:59:46.056Z,26.59
2018-07-22T03:00:46.096Z,26.60
2018-07-22T03:01:46.422Z,26.53
2018-07-22T03:02:46.163Z,26.59
2018-07-22T03:03:46.194Z,26.53
2018-07-22T03:04:46.224Z,26.56
2018-07-22T03:05:46.253Z,26.44
2018-07-22T03:06:46.289Z,26.46
2018-07-22T03:07:46.572Z,26.42
2018-07-22T03:08:46.363Z,26.44
2018-07-22T03:09:46.418Z,26.47
2018-07-22T03:10:46.425Z,26.47
2018-07-22T03:11:46.457Z,26.47
2018-07-22T03:12:46.492Z,26.42
2018-07-22T03:13:46.874Z,26.41
2018-07-22T03:14:46.555Z,26.41
2018-07-22T03:15:46.596Z,26.39
2018-07-22T03:16:46.644Z,26.41
2018-07-22T03:17:46.655Z,26.32
2018-07-22T03:18:46.691Z,26.36
2018-07-22T03:19:46.984Z,26.41
2018-07-22T03:20:46.757Z,26.35
2018-07-22T03:21:46.795Z,26.41
2018-07-22T03:22:46.825Z,26.42
2018-07-22T03:23:46.858Z,26.42
2018-07-22T03:24:47.149Z,26.32
2018-07-22T03:25:47.173Z,26.34
2018-07-22T03:26:46.956Z,26.36
2018-07-22T03:27:46.993Z,26.32
2018-07-22T03:28:47.141Z,26.31
2018-07-22T03:29:47.147Z,26.28
2018-07-22T03:30:47.109Z,26.31
2018-07-22T03:31:47.369Z,26.28
2018-07-22T03:32:47.164Z,26.21
2018-07-22T03:33:47.187Z,26.24
2018-07-22T03:34:47.235Z,26.19
2018-07-22T03:35:47.257Z,26.27
2018-07-22T03:36:47.306Z,26.09
2018-07-22T03:37:47.570Z,26.03
2018-07-22T03:38:47.370Z,26.09
2018-07-22T03:39:47.388Z,26.11
2018-07-22T03:40:47.418Z,26.11
2018-07-22T03:41:47.455Z,26.04
2018-07-22T03:42:47.492Z,26.01
2018-07-22T03:43:47.524Z,25.98
2018-07-22T03:44:47.845Z,26.03
2018-07-22T03:45:47.640Z,26.01
2018-07-22T03:46:47.641Z,26.04
2018-07-22T03:47:47.657Z,26.12
2018-07-22T03:48:47.691Z,26.03
2018-07-22T03:49:47.725Z,26.00
2018-07-22T03:50:47.749Z,26.00
2018-07-22T03:51:48.088Z,25.86
2018-07-22T03:52:47.814Z,25.82
2018-07-22T03:53:47.854Z,25.94
2018-07-22T03:54:47.992Z,25.90
2018-07-22T03:55:47.924Z,25.81
2018-07-22T03:56:47.948Z,25.91
2018-07-22T03:57:47.993Z,26.01
2018-07-22T03:58:48.269Z,26.04
2018-07-22T03:59:48.111Z,26.01
2018-07-22T04:00:48.089Z,26.09
2018-07-22T04:01:48.135Z,26.20
2018-07-22T04:02:48.165Z,26.24
2018-07-22T04:03:48.180Z,26.29
2018-07-22T04:04:48.228Z,26.32
2018-07-22T04:05:48.504Z,26.35
2018-07-22T04:06:48.285Z,26.42
2018-07-22T04:07:48.320Z,26.46
2018-07-22T04:08:48.353Z,26.50
2018-07-22T04:09:48.401Z,26.60
2018-07-22T04:10:48.514Z,26.65
2018-07-22T04:11:49.129Z,26.72
2018-07-22T04:12:48.799Z,26.71
2018-07-22T04:13:48.516Z,26.75
2018-07-22T04:14:48.557Z,26.86
2018-07-22T04:15:48.603Z,26.94
2018-07-22T04:16:48.621Z,26.87
2018-07-22T04:17:48.672Z,26.86
2018-07-22T04:18:48.678Z,26.96
2018-07-22T04:19:49.066Z,26.97
2018-07-22T04:20:48.756Z,27.02
2018-07-22T04:21:48.780Z,26.94
2018-07-22T04:22:48.813Z,27.03
2018-07-22T04:23:48.886Z,27.08
2018-07-22T04:24:49.077Z,27.05
2018-07-22T04:25:48.913Z,27.18
2018-07-22T04:26:49.320Z,27.18
2018-07-22T04:27:48.981Z,27.09
2018-07-22T04:28:49.125Z,27.27
2018-07-22T04:29:49.126Z,27.20
2018-07-22T04:30:49.141Z,27.27
2018-07-22T04:31:49.217Z,27.23
2018-07-22T04:32:49.146Z,27.33
2018-07-22T04:33:49.430Z,27.34
2018-07-22T04:34:49.225Z,27.33
2018-07-22T04:35:49.253Z,27.38
2018-07-22T04:36:49.286Z,27.39
2018-07-22T04:37:49.320Z,27.40
2018-07-22T04:38:49.354Z,27.48
2018-07-22T04:39:49.390Z,27.42
2018-07-22T04:40:49.689Z,27.48
2018-07-22T04:41:49.449Z,27.39
2018-07-22T04:42:49.484Z,27.39
2018-07-22T04:43:49.519Z,27.48
2018-07-22T04:44:49.551Z,27.42
2018-07-22T04:45:49.589Z,27.46
2018-07-22T04:46:49.673Z,27.43
2018-07-22T04:47:49.907Z,27.53
2018-07-22T04:48:49.794Z,27.53
2018-07-22T04:49:49.731Z,27.53
2018-07-22T04:50:49.762Z,27.52
2018-07-22T04:51:49.786Z,27.52
2018-07-22T04:52:49.821Z,27.46
2018-07-22T04:53:49.863Z,27.53
2018-07-22T04:54:50.195Z,27.58
2018-07-22T04:55:50.151Z,27.65
2018-07-22T04:56:50.149Z,27.65
2018-07-22T04:57:49.988Z,27.61
2018-07-22T04:58:50.021Z,27.65
2018-07-22T04:59:50.058Z,27.74
2018-07-22T05:00:50.101Z,27.63
2018-07-22T05:01:50.451Z,27.65
2018-07-22T05:02:50.163Z,27.71
2018-07-22T05:03:50.212Z,27.69
2018-07-22T05:04:50.231Z,27.69
2018-07-22T05:05:50.263Z,27.69
2018-07-22T05:06:50.294Z,27.66
2018-07-22T05:07:50.628Z,27.77
2018-07-22T05:08:50.459Z,27.69
2018-07-22T05:09:50.397Z,27.69
2018-07-22T05:10:50.452Z,27.78
2018-07-22T05:11:50.467Z,27.74
2018-07-22T05:12:50.494Z,27.76
2018-07-22T05:13:50.831Z,27.74
2018-07-22T05:14:50.572Z,27.76
2018-07-22T05:15:50.603Z,27.87
2018-07-22T05:16:50.645Z,27.81
2018-07-22T05:17:50.693Z,27.87
2018-07-22T05:18:50.719Z,27.90
2018-07-22T05:19:51.018Z,27.87
2018-07-22T05:20:50.820Z,27.87
2018-07-22T05:21:50.799Z,27.80
2018-07-22T05:22:50.834Z,27.87
2018-07-22T05:23:50.868Z,27.80
2018-07-22T05:24:50.908Z,27.86
2018-07-22T05:25:51.241Z,27.84
2018-07-22T05:26:50.970Z,27.83
2018-07-22T05:27:51.013Z,27.88
2018-07-22T05:28:51.035Z,27.88
2018-07-22T05:29:51.081Z,27.84
2018-07-22T05:30:51.115Z,27.84
2018-07-22T05:31:51.504Z,27.86
2018-07-22T05:32:51.195Z,27.88
2018-07-22T05:33:51.222Z,27.88
2018-07-22T05:34:51.248Z,27.87
2018-07-22T05:35:51.277Z,27.87
2018-07-22T05:36:51.365Z,27.99
2018-07-22T05:37:51.657Z,27.96
2018-07-22T05:38:51.418Z,27.93
2018-07-22T05:39:51.418Z,27.91
2018-07-22T05:40:51.467Z,27.91
2018-07-22T05:41:51.475Z,27.98
2018-07-22T05:42:51.538Z,27.95
2018-07-22T05:43:51.865Z,27.96
2018-07-22T05:44:51.580Z,27.91
2018-07-22T05:45:51.611Z,27.96
2018-07-22T05:46:51.692Z,27.95
2018-07-22T05:47:51.719Z,27.98
2018-07-22T05:48:51.743Z,27.93
2018-07-22T05:49:52.053Z,28.05
2018-07-22T05:50:51.788Z,27.98
2018-07-22T05:51:51.822Z,27.98
2018-07-22T05:52:52.153Z,28.02
2018-07-22T05:53:52.138Z,28.03
2018-07-22T05:54:51.945Z,28.01
2018-07-22T05:55:52.203Z,28.09
2018-07-22T05:56:51.995Z,28.05
2018-07-22T05:57:52.049Z,28.05
2018-07-22T05:58:52.065Z,28.05
2018-07-22T05:59:52.097Z,28.05
2018-07-22T06:00:52.122Z,28.08
2018-07-22T06:01:52.412Z,28.08
2018-07-22T06:02:52.194Z,28.05
2018-07-22T06:03:52.240Z,28.03
2018-07-22T06:04:52.258Z,28.08
2018-07-22T06:05:52.304Z,28.06
2018-07-22T06:06:52.335Z,28.08
2018-07-22T06:07:52.654Z,28.14
2018-07-22T06:08:52.405Z,28.14
2018-07-22T06:09:52.464Z,28.17
2018-07-22T06:10:52.464Z,28.13
2018-07-22T06:11:52.579Z,28.17
2018-07-22T06:12:52.547Z,28.15
2018-07-22T06:13:53.077Z,28.14
2018-07-22T06:14:52.606Z,28.15
2018-07-22T06:15:52.646Z,28.18
2018-07-22T06:16:52.671Z,28.17
2018-07-22T06:17:52.709Z,28.24
2018-07-22T06:18:52.794Z,28.24
2018-07-22T06:19:53.129Z,28.18
2018-07-22T06:20:52.818Z,28.23
2018-07-22T06:21:52.850Z,28.18
2018-07-22T06:22:52.975Z,28.18
2018-07-22T06:23:52.911Z,28.23
2018-07-22T06:24:53.184Z,28.21
2018-07-22T06:25:53.385Z,28.20
2018-07-22T06:26:53.505Z,28.23
2018-07-22T06:27:53.431Z,28.27
2018-07-22T06:28:53.425Z,28.20
2018-07-22T06:29:53.118Z,28.21
2018-07-22T06:30:53.165Z,28.21
2018-07-22T06:31:53.244Z,28.27
2018-07-22T06:32:53.289Z,28.20
2018-07-22T06:33:53.565Z,28.23
2018-07-22T06:34:53.568Z,28.24
2018-07-22T06:35:53.343Z,28.21
2018-07-22T06:36:53.544Z,28.18
2018-07-22T06:37:53.411Z,28.21
2018-07-22T06:38:53.551Z,28.21
2018-07-22T06:39:53.479Z,28.32
2018-07-22T06:40:53.827Z,28.24
2018-07-22T06:41:53.577Z,28.24
2018-07-22T06:42:53.759Z,28.20
2018-07-22T06:43:53.596Z,28.27
2018-07-22T06:44:53.624Z,28.24
2018-07-22T06:45:53.683Z,28.21
2018-07-22T06:46:53.708Z,28.32
2018-07-22T06:47:54.649Z,28.25
2018-07-22T06:48:53.803Z,28.23
2018-07-22T06:49:53.834Z,28.33
2018-07-22T06:50:54.020Z,28.38
2018-07-22T06:51:54.173Z,28.33
2018-07-22T06:52:54.024Z,28.21
2018-07-22T06:53:54.069Z,28.24
2018-07-22T06:54:54.387Z,28.30
2018-07-22T06:55:54.030Z,28.27
2018-07-22T06:56:54.675Z,28.32
2018-07-22T06:57:54.088Z,28.28
2018-07-22T06:58:54.178Z,28.25
2018-07-22T06:59:54.171Z,28.30
2018-07-22T07:00:54.217Z,28.27
2018-07-22T07:01:54.455Z,28.40
2018-07-22T07:02:54.244Z,28.30
2018-07-22T07:03:54.319Z,28.28
2018-07-22T07:04:54.315Z,28.35
2018-07-22T07:05:54.376Z,28.28
2018-07-22T07:06:54.406Z,28.36
2018-07-22T07:07:54.445Z,28.25
2018-07-22T07:08:54.782Z,28.38
2018-07-22T07:09:54.521Z,28.32
2018-07-22T07:10:54.549Z,28.32
2018-07-22T07:11:54.675Z,28.42
2018-07-22T07:12:54.605Z,28.33
2018-07-22T07:13:54.654Z,28.32
2018-07-22T07:14:54.666Z,28.32
2018-07-22T07:15:55.051Z,28.39
2018-07-22T07:16:54.739Z,28.27
2018-07-22T07:17:55.065Z,28.32
2018-07-22T07:18:54.803Z,28.36
2018-07-22T07:19:55.098Z,28.38
2018-07-22T07:20:55.108Z,28.39
2018-07-22T07:21:54.915Z,28.36
2018-07-22T07:22:55.235Z,28.30
2018-07-22T07:23:55.144Z,28.43
2018-07-22T07:24:55.147Z,28.36
2018-07-22T07:25:55.047Z,28.36
2018-07-22T07:26:55.124Z,28.43
2018-07-22T07:27:55.602Z,28.40
2018-07-22T07:28:55.137Z,28.38
2018-07-22T07:29:55.510Z,28.39
2018-07-22T07:30:55.205Z,28.39
2018-07-22T07:31:55.439Z,28.30
